sensor_id;sensor_type;location;lat;lon;timestamp;P1;durP1;ratioP1;P2;durP2;ratioP2
4389;SDS011;2209;48.982;8.406;2022-12-10T00:02:09;24.27;;;15.80;;
4389;SDS011;2209;48.982;8.406;2022-12-10T00:04:32;25.07;;;16.53;;
4389;SDS011;2209;48.982;8.406;2022-12-10T00:06:54;26.00;;;15.73;;
4389;SDS011;2209;48.982;8.406;2022-12-10T00:09:16;21.90;;;13.87;;
4389;SDS011;2209;48.982;8.406;2022-12-10T00:11:41;21.97;;;14.67;;
4389;SDS011;2209;48.982;8.406;2022-12-10T00:14:04;25.10;;;15.50;;
4389;SDS011;2209;48.982;8.406;2022-12-10T00:16:27;23.27;;;15.70;;
4389;SDS011;2209;48.982;8.406;2022-12-10T00:18:51;27.03;;;15.87;;
4389;SDS011;2209;48.982;8.406;2022-12-10T00:21:14;21.97;;;15.97;;
4389;SDS011;2209;48.982;8.406;2022-12-10T00:23:40;21.67;;;15.27;;
4389;SDS011;2209;48.982;8.406;2022-12-10T00:26:03;21.60;;;16.20;;
4389;SDS011;2209;48.982;8.406;2022-12-10T00:28:28;28.37;;;16.27;;
4389;SDS011;2209;48.982;8.406;2022-12-10T00:30:50;22.33;;;16.40;;
4389;SDS011;2209;48.982;8.406;2022-12-10T00:33:12;25.10;;;16.77;;
4389;SDS011;2209;48.982;8.406;2022-12-10T00:35:34;21.03;;;15.63;;
4389;SDS011;2209;48.982;8.406;2022-12-10T00:37:57;21.00;;;15.70;;
4389;SDS011;2209;48.982;8.406;2022-12-10T00:40:19;24.63;;;15.73;;
4389;SDS011;2209;48.982;8.406;2022-12-10T00:42:42;24.27;;;14.60;;
4389;SDS011;2209;48.982;8.406;2022-12-10T00:45:05;22.63;;;15.27;;
4389;SDS011;2209;48.982;8.406;2022-12-10T00:47:28;21.50;;;15.67;;
4389;SDS011;2209;48.982;8.406;2022-12-10T00:49:50;24.87;;;17.87;;
4389;SDS011;2209;48.982;8.406;2022-12-10T00:52:12;23.87;;;15.30;;
4389;SDS011;2209;48.982;8.406;2022-12-10T00:54:34;20.17;;;15.53;;
4389;SDS011;2209;48.982;8.406;2022-12-10T00:56:56;21.77;;;15.57;;
4389;SDS011;2209;48.982;8.406;2022-12-10T00:59:18;21.03;;;15.87;;
4389;SDS011;2209;48.982;8.406;2022-12-10T01:01:42;23.93;;;15.30;;
4389;SDS011;2209;48.982;8.406;2022-12-10T01:04:05;25.20;;;16.33;;
4389;SDS011;2209;48.982;8.406;2022-12-10T01:06:31;22.73;;;16.13;;
4389;SDS011;2209;48.982;8.406;2022-12-10T01:08:55;24.40;;;16.70;;
4389;SDS011;2209;48.982;8.406;2022-12-10T01:11:19;21.33;;;15.23;;
4389;SDS011;2209;48.982;8.406;2022-12-10T01:13:42;22.40;;;16.07;;
4389;SDS011;2209;48.982;8.406;2022-12-10T01:16:07;21.80;;;14.80;;
4389;SDS011;2209;48.982;8.406;2022-12-10T01:18:31;22.20;;;15.00;;
4389;SDS011;2209;48.982;8.406;2022-12-10T01:20:54;22.87;;;15.97;;
4389;SDS011;2209;48.982;8.406;2022-12-10T01:23:16;23.90;;;16.83;;
4389;SDS011;2209;48.982;8.406;2022-12-10T01:25:38;24.93;;;16.10;;
4389;SDS011;2209;48.982;8.406;2022-12-10T01:28:00;25.83;;;15.40;;
4389;SDS011;2209;48.982;8.406;2022-12-10T01:30:22;24.30;;;15.53;;
4389;SDS011;2209;48.982;8.406;2022-12-10T01:32:44;21.70;;;16.30;;
4389;SDS011;2209;48.982;8.406;2022-12-10T01:35:08;24.37;;;16.90;;
4389;SDS011;2209;48.982;8.406;2022-12-10T01:37:39;21.80;;;15.40;;
4389;SDS011;2209;48.982;8.406;2022-12-10T01:40:01;23.60;;;16.80;;
4389;SDS011;2209;48.982;8.406;2022-12-10T01:42:23;23.10;;;16.37;;
4389;SDS011;2209;48.982;8.406;2022-12-10T01:47:34;21.97;;;16.20;;
4389;SDS011;2209;48.982;8.406;2022-12-10T01:49:56;20.20;;;15.37;;
4389;SDS011;2209;48.982;8.406;2022-12-10T01:52:20;23.53;;;16.13;;
4389;SDS011;2209;48.982;8.406;2022-12-10T01:54:43;23.67;;;15.93;;
4389;SDS011;2209;48.982;8.406;2022-12-10T01:57:07;21.70;;;16.13;;
4389;SDS011;2209;48.982;8.406;2022-12-10T01:59:32;25.67;;;17.13;;
4389;SDS011;2209;48.982;8.406;2022-12-10T02:01:57;20.30;;;15.30;;
4389;SDS011;2209;48.982;8.406;2022-12-10T02:04:25;18.97;;;14.73;;
4389;SDS011;2209;48.982;8.406;2022-12-10T02:07:09;21.80;;;16.17;;
4389;SDS011;2209;48.982;8.406;2022-12-10T02:09:38;24.13;;;16.50;;
4389;SDS011;2209;48.982;8.406;2022-12-10T02:12:06;21.77;;;16.63;;
4389;SDS011;2209;48.982;8.406;2022-12-10T02:14:37;24.13;;;16.43;;
4389;SDS011;2209;48.982;8.406;2022-12-10T02:17:07;22.70;;;15.73;;
4389;SDS011;2209;48.982;8.406;2022-12-10T02:19:44;22.30;;;14.77;;
4389;SDS011;2209;48.982;8.406;2022-12-10T02:22:18;22.43;;;15.87;;
4389;SDS011;2209;48.982;8.406;2022-12-10T02:24:43;22.80;;;15.40;;
4389;SDS011;2209;48.982;8.406;2022-12-10T02:27:10;22.50;;;15.83;;
4389;SDS011;2209;48.982;8.406;2022-12-10T02:29:39;22.67;;;15.67;;
4389;SDS011;2209;48.982;8.406;2022-12-10T02:32:03;21.23;;;14.33;;
4389;SDS011;2209;48.982;8.406;2022-12-10T02:34:29;21.30;;;15.80;;
4389;SDS011;2209;48.982;8.406;2022-12-10T02:36:54;21.77;;;17.00;;
4389;SDS011;2209;48.982;8.406;2022-12-10T02:39:19;22.47;;;14.50;;
4389;SDS011;2209;48.982;8.406;2022-12-10T02:41:45;21.10;;;15.87;;
4389;SDS011;2209;48.982;8.406;2022-12-10T02:44:11;24.73;;;14.93;;
4389;SDS011;2209;48.982;8.406;2022-12-10T02:46:37;22.67;;;15.87;;
4389;SDS011;2209;48.982;8.406;2022-12-10T02:49:02;24.73;;;16.43;;
4389;SDS011;2209;48.982;8.406;2022-12-10T02:51:25;20.10;;;15.90;;
4389;SDS011;2209;48.982;8.406;2022-12-10T02:53:48;24.60;;;16.20;;
4389;SDS011;2209;48.982;8.406;2022-12-10T02:56:20;19.83;;;14.43;;
4389;SDS011;2209;48.982;8.406;2022-12-10T02:58:51;23.60;;;15.80;;
4389;SDS011;2209;48.982;8.406;2022-12-10T03:01:25;24.60;;;16.17;;
4389;SDS011;2209;48.982;8.406;2022-12-10T03:03:59;24.53;;;16.20;;
4389;SDS011;2209;48.982;8.406;2022-12-10T03:06:26;21.47;;;15.80;;
4389;SDS011;2209;48.982;8.406;2022-12-10T03:08:52;19.17;;;15.50;;
4389;SDS011;2209;48.982;8.406;2022-12-10T03:11:23;27.10;;;15.53;;
4389;SDS011;2209;48.982;8.406;2022-12-10T03:13:48;27.77;;;17.43;;
4389;SDS011;2209;48.982;8.406;2022-12-10T03:16:14;27.67;;;16.47;;
4389;SDS011;2209;48.982;8.406;2022-12-10T03:18:38;22.77;;;16.17;;
4389;SDS011;2209;48.982;8.406;2022-12-10T03:21:03;19.23;;;15.00;;
4389;SDS011;2209;48.982;8.406;2022-12-10T03:23:26;25.67;;;15.70;;
4389;SDS011;2209;48.982;8.406;2022-12-10T03:25:50;21.57;;;15.00;;
4389;SDS011;2209;48.982;8.406;2022-12-10T03:28:13;24.77;;;16.53;;
4389;SDS011;2209;48.982;8.406;2022-12-10T03:30:37;23.93;;;16.30;;
4389;SDS011;2209;48.982;8.406;2022-12-10T03:33:02;23.97;;;15.37;;
4389;SDS011;2209;48.982;8.406;2022-12-10T03:35:25;24.07;;;16.83;;
4389;SDS011;2209;48.982;8.406;2022-12-10T03:37:49;21.53;;;15.43;;
4389;SDS011;2209;48.982;8.406;2022-12-10T03:40:11;24.63;;;17.47;;
4389;SDS011;2209;48.982;8.406;2022-12-10T03:42:34;24.27;;;16.63;;
4389;SDS011;2209;48.982;8.406;2022-12-10T03:44:57;26.87;;;16.77;;
4389;SDS011;2209;48.982;8.406;2022-12-10T03:47:19;26.20;;;16.77;;
4389;SDS011;2209;48.982;8.406;2022-12-10T03:49:41;23.13;;;16.10;;
4389;SDS011;2209;48.982;8.406;2022-12-10T03:52:04;19.27;;;15.90;;
4389;SDS011;2209;48.982;8.406;2022-12-10T03:54:27;25.80;;;16.90;;
4389;SDS011;2209;48.982;8.406;2022-12-10T03:56:49;26.40;;;17.53;;
4389;SDS011;2209;48.982;8.406;2022-12-10T03:59:11;22.97;;;16.20;;
4389;SDS011;2209;48.982;8.406;2022-12-10T04:01:33;19.90;;;15.13;;
4389;SDS011;2209;48.982;8.406;2022-12-10T04:03:55;26.33;;;18.20;;
4389;SDS011;2209;48.982;8.406;2022-12-10T04:06:18;23.23;;;17.07;;
4389;SDS011;2209;48.982;8.406;2022-12-10T04:08:40;25.63;;;16.20;;
4389;SDS011;2209;48.982;8.406;2022-12-10T04:11:05;24.70;;;17.33;;
4389;SDS011;2209;48.982;8.406;2022-12-10T04:13:30;20.40;;;15.93;;
4389;SDS011;2209;48.982;8.406;2022-12-10T04:16:19;23.37;;;16.10;;
4389;SDS011;2209;48.982;8.406;2022-12-10T04:18:48;24.43;;;17.47;;
4389;SDS011;2209;48.982;8.406;2022-12-10T04:21:10;24.70;;;17.43;;
4389;SDS011;2209;48.982;8.406;2022-12-10T04:23:49;25.23;;;16.77;;
4389;SDS011;2209;48.982;8.406;2022-12-10T04:26:31;22.77;;;17.10;;
4389;SDS011;2209;48.982;8.406;2022-12-10T04:29:22;24.30;;;17.47;;
4389;SDS011;2209;48.982;8.406;2022-12-10T04:31:45;25.37;;;18.17;;
4389;SDS011;2209;48.982;8.406;2022-12-10T04:34:07;25.13;;;17.73;;
4389;SDS011;2209;48.982;8.406;2022-12-10T04:36:29;26.07;;;17.83;;
4389;SDS011;2209;48.982;8.406;2022-12-10T04:38:51;27.30;;;17.57;;
4389;SDS011;2209;48.982;8.406;2022-12-10T04:41:13;29.43;;;20.23;;
4389;SDS011;2209;48.982;8.406;2022-12-10T04:43:37;42.57;;;17.80;;
4389;SDS011;2209;48.982;8.406;2022-12-10T04:46:00;28.20;;;19.30;;
4389;SDS011;2209;48.982;8.406;2022-12-10T04:48:22;27.80;;;19.00;;
4389;SDS011;2209;48.982;8.406;2022-12-10T04:50:45;31.73;;;20.40;;
4389;SDS011;2209;48.982;8.406;2022-12-10T04:53:07;27.03;;;19.07;;
4389;SDS011;2209;48.982;8.406;2022-12-10T04:55:29;28.47;;;18.67;;
4389;SDS011;2209;48.982;8.406;2022-12-10T04:57:52;26.33;;;18.20;;
4389;SDS011;2209;48.982;8.406;2022-12-10T05:00:15;33.90;;;21.40;;
4389;SDS011;2209;48.982;8.406;2022-12-10T05:02:37;31.83;;;20.70;;
4389;SDS011;2209;48.982;8.406;2022-12-10T05:04:59;31.63;;;21.23;;
4389;SDS011;2209;48.982;8.406;2022-12-10T05:07:21;31.23;;;19.30;;
4389;SDS011;2209;48.982;8.406;2022-12-10T05:09:44;33.70;;;19.87;;
4389;SDS011;2209;48.982;8.406;2022-12-10T05:12:06;31.90;;;20.10;;
4389;SDS011;2209;48.982;8.406;2022-12-10T05:14:28;30.43;;;20.40;;
4389;SDS011;2209;48.982;8.406;2022-12-10T05:16:51;29.67;;;18.80;;
4389;SDS011;2209;48.982;8.406;2022-12-10T05:19:14;31.60;;;20.90;;
4389;SDS011;2209;48.982;8.406;2022-12-10T05:21:36;33.07;;;20.60;;
4389;SDS011;2209;48.982;8.406;2022-12-10T05:24:18;32.00;;;20.57;;
4389;SDS011;2209;48.982;8.406;2022-12-10T05:26:40;33.17;;;21.40;;
4389;SDS011;2209;48.982;8.406;2022-12-10T05:29:02;32.13;;;19.23;;
4389;SDS011;2209;48.982;8.406;2022-12-10T05:31:25;28.37;;;18.40;;
4389;SDS011;2209;48.982;8.406;2022-12-10T05:33:51;29.53;;;19.23;;
4389;SDS011;2209;48.982;8.406;2022-12-10T05:36:14;29.57;;;21.20;;
4389;SDS011;2209;48.982;8.406;2022-12-10T05:38:37;32.80;;;20.70;;
4389;SDS011;2209;48.982;8.406;2022-12-10T05:41:01;28.27;;;19.57;;
4389;SDS011;2209;48.982;8.406;2022-12-10T05:43:23;30.73;;;20.83;;
4389;SDS011;2209;48.982;8.406;2022-12-10T05:45:46;29.37;;;20.77;;
4389;SDS011;2209;48.982;8.406;2022-12-10T05:48:08;27.63;;;18.97;;
4389;SDS011;2209;48.982;8.406;2022-12-10T05:50:32;30.90;;;20.77;;
4389;SDS011;2209;48.982;8.406;2022-12-10T05:52:54;31.40;;;20.47;;
4389;SDS011;2209;48.982;8.406;2022-12-10T05:55:16;34.30;;;20.40;;
4389;SDS011;2209;48.982;8.406;2022-12-10T05:57:38;30.40;;;20.93;;
4389;SDS011;2209;48.982;8.406;2022-12-10T06:00:00;32.40;;;20.70;;
4389;SDS011;2209;48.982;8.406;2022-12-10T06:02:22;32.57;;;19.67;;
4389;SDS011;2209;48.982;8.406;2022-12-10T06:04:44;29.97;;;20.27;;
4389;SDS011;2209;48.982;8.406;2022-12-10T06:07:08;29.40;;;20.53;;
4389;SDS011;2209;48.982;8.406;2022-12-10T06:09:30;29.00;;;19.17;;
4389;SDS011;2209;48.982;8.406;2022-12-10T06:11:52;32.10;;;22.00;;
4389;SDS011;2209;48.982;8.406;2022-12-10T06:14:14;29.47;;;20.40;;
4389;SDS011;2209;48.982;8.406;2022-12-10T06:16:36;34.17;;;21.30;;
4389;SDS011;2209;48.982;8.406;2022-12-10T06:18:59;33.80;;;21.50;;
4389;SDS011;2209;48.982;8.406;2022-12-10T06:21:21;35.73;;;20.80;;
4389;SDS011;2209;48.982;8.406;2022-12-10T06:23:46;29.17;;;19.00;;
4389;SDS011;2209;48.982;8.406;2022-12-10T06:26:12;36.17;;;22.37;;
4389;SDS011;2209;48.982;8.406;2022-12-10T06:28:36;32.10;;;20.40;;
4389;SDS011;2209;48.982;8.406;2022-12-10T06:30:59;31.00;;;20.30;;
4389;SDS011;2209;48.982;8.406;2022-12-10T06:33:21;31.90;;;22.30;;
4389;SDS011;2209;48.982;8.406;2022-12-10T06:35:43;33.03;;;20.27;;
4389;SDS011;2209;48.982;8.406;2022-12-10T06:38:05;30.37;;;19.63;;
4389;SDS011;2209;48.982;8.406;2022-12-10T06:40:29;30.87;;;21.07;;
4389;SDS011;2209;48.982;8.406;2022-12-10T06:42:51;30.70;;;19.80;;
4389;SDS011;2209;48.982;8.406;2022-12-10T06:45:13;35.57;;;20.77;;
4389;SDS011;2209;48.982;8.406;2022-12-10T06:47:35;35.03;;;21.80;;
4389;SDS011;2209;48.982;8.406;2022-12-10T06:49:57;30.43;;;19.27;;
4389;SDS011;2209;48.982;8.406;2022-12-10T06:52:19;31.70;;;20.27;;
4389;SDS011;2209;48.982;8.406;2022-12-10T06:54:41;32.80;;;21.73;;
4389;SDS011;2209;48.982;8.406;2022-12-10T06:57:05;34.07;;;20.67;;
4389;SDS011;2209;48.982;8.406;2022-12-10T06:59:27;36.70;;;21.67;;
4389;SDS011;2209;48.982;8.406;2022-12-10T07:01:49;33.00;;;21.00;;
4389;SDS011;2209;48.982;8.406;2022-12-10T07:04:11;32.27;;;21.60;;
4389;SDS011;2209;48.982;8.406;2022-12-10T07:06:33;35.50;;;22.80;;
4389;SDS011;2209;48.982;8.406;2022-12-10T07:08:55;32.73;;;20.57;;
4389;SDS011;2209;48.982;8.406;2022-12-10T07:11:20;35.80;;;20.63;;
4389;SDS011;2209;48.982;8.406;2022-12-10T07:13:45;32.73;;;21.60;;
4389;SDS011;2209;48.982;8.406;2022-12-10T07:16:11;30.27;;;19.97;;
4389;SDS011;2209;48.982;8.406;2022-12-10T07:18:34;33.80;;;21.10;;
4389;SDS011;2209;48.982;8.406;2022-12-10T07:20:56;30.20;;;19.67;;
4389;SDS011;2209;48.982;8.406;2022-12-10T07:23:18;31.27;;;20.00;;
4389;SDS011;2209;48.982;8.406;2022-12-10T07:25:41;33.40;;;21.50;;
4389;SDS011;2209;48.982;8.406;2022-12-10T07:28:03;37.43;;;21.20;;
4389;SDS011;2209;48.982;8.406;2022-12-10T07:30:26;30.47;;;19.67;;
4389;SDS011;2209;48.982;8.406;2022-12-10T07:32:48;35.40;;;21.13;;
4389;SDS011;2209;48.982;8.406;2022-12-10T07:35:10;34.10;;;21.70;;
4389;SDS011;2209;48.982;8.406;2022-12-10T07:37:32;34.30;;;22.50;;
4389;SDS011;2209;48.982;8.406;2022-12-10T07:39:55;33.53;;;21.27;;
4389;SDS011;2209;48.982;8.406;2022-12-10T07:42:17;36.03;;;21.67;;
4389;SDS011;2209;48.982;8.406;2022-12-10T07:44:39;32.07;;;21.57;;
4389;SDS011;2209;48.982;8.406;2022-12-10T07:47:03;33.83;;;20.83;;
4389;SDS011;2209;48.982;8.406;2022-12-10T07:49:25;33.60;;;21.47;;
4389;SDS011;2209;48.982;8.406;2022-12-10T07:51:48;28.03;;;18.73;;
4389;SDS011;2209;48.982;8.406;2022-12-10T07:54:11;31.90;;;19.70;;
4389;SDS011;2209;48.982;8.406;2022-12-10T07:56:33;32.97;;;21.10;;
4389;SDS011;2209;48.982;8.406;2022-12-10T07:58:55;33.47;;;21.13;;
4389;SDS011;2209;48.982;8.406;2022-12-10T08:01:18;31.30;;;21.20;;
4389;SDS011;2209;48.982;8.406;2022-12-10T08:03:44;30.80;;;20.53;;
4389;SDS011;2209;48.982;8.406;2022-12-10T08:06:07;32.87;;;20.60;;
4389;SDS011;2209;48.982;8.406;2022-12-10T08:08:30;35.47;;;21.00;;
4389;SDS011;2209;48.982;8.406;2022-12-10T08:10:54;29.47;;;19.93;;
4389;SDS011;2209;48.982;8.406;2022-12-10T08:13:16;32.50;;;20.40;;
4389;SDS011;2209;48.982;8.406;2022-12-10T08:15:38;31.37;;;19.70;;
4389;SDS011;2209;48.982;8.406;2022-12-10T08:18:00;33.60;;;20.97;;
4389;SDS011;2209;48.982;8.406;2022-12-10T08:20:24;30.00;;;20.30;;
4389;SDS011;2209;48.982;8.406;2022-12-10T08:22:46;31.70;;;19.80;;
4389;SDS011;2209;48.982;8.406;2022-12-10T08:25:08;30.90;;;19.00;;
4389;SDS011;2209;48.982;8.406;2022-12-10T08:27:30;37.57;;;21.83;;
4389;SDS011;2209;48.982;8.406;2022-12-10T08:29:52;32.73;;;20.30;;
4389;SDS011;2209;48.982;8.406;2022-12-10T08:32:14;30.97;;;20.77;;
4389;SDS011;2209;48.982;8.406;2022-12-10T08:34:37;31.97;;;19.63;;
4389;SDS011;2209;48.982;8.406;2022-12-10T08:37:00;31.67;;;19.60;;
4389;SDS011;2209;48.982;8.406;2022-12-10T08:39:22;29.37;;;21.13;;
4389;SDS011;2209;48.982;8.406;2022-12-10T08:41:45;34.67;;;20.37;;
4389;SDS011;2209;48.982;8.406;2022-12-10T08:44:07;28.33;;;19.50;;
4389;SDS011;2209;48.982;8.406;2022-12-10T08:46:29;30.90;;;20.13;;
4389;SDS011;2209;48.982;8.406;2022-12-10T08:48:51;29.70;;;20.37;;
4389;SDS011;2209;48.982;8.406;2022-12-10T08:51:14;29.17;;;18.87;;
4389;SDS011;2209;48.982;8.406;2022-12-10T08:53:39;29.90;;;20.37;;
4389;SDS011;2209;48.982;8.406;2022-12-10T08:56:01;36.10;;;21.50;;
4389;SDS011;2209;48.982;8.406;2022-12-10T08:58:23;29.93;;;19.13;;
4389;SDS011;2209;48.982;8.406;2022-12-10T09:00:45;32.40;;;20.33;;
4389;SDS011;2209;48.982;8.406;2022-12-10T09:03:08;31.90;;;19.80;;
4389;SDS011;2209;48.982;8.406;2022-12-10T09:05:30;29.13;;;18.63;;
4389;SDS011;2209;48.982;8.406;2022-12-10T09:07:52;28.80;;;19.97;;
4389;SDS011;2209;48.982;8.406;2022-12-10T09:10:16;28.17;;;18.20;;
4389;SDS011;2209;48.982;8.406;2022-12-10T09:12:38;31.27;;;19.07;;
4389;SDS011;2209;48.982;8.406;2022-12-10T09:15:00;29.40;;;19.87;;
4389;SDS011;2209;48.982;8.406;2022-12-10T09:17:23;26.97;;;18.80;;
4389;SDS011;2209;48.982;8.406;2022-12-10T09:19:45;29.57;;;19.27;;
4389;SDS011;2209;48.982;8.406;2022-12-10T09:22:07;26.43;;;18.07;;
4389;SDS011;2209;48.982;8.406;2022-12-10T09:24:29;29.67;;;17.77;;
4389;SDS011;2209;48.982;8.406;2022-12-10T09:26:53;29.17;;;19.37;;
4389;SDS011;2209;48.982;8.406;2022-12-10T09:29:15;25.33;;;17.40;;
4389;SDS011;2209;48.982;8.406;2022-12-10T09:31:37;26.50;;;18.50;;
4389;SDS011;2209;48.982;8.406;2022-12-10T09:33:59;27.27;;;18.50;;
4389;SDS011;2209;48.982;8.406;2022-12-10T09:36:21;27.33;;;18.73;;
4389;SDS011;2209;48.982;8.406;2022-12-10T09:38:44;26.47;;;17.33;;
4389;SDS011;2209;48.982;8.406;2022-12-10T09:41:12;28.83;;;18.20;;
4389;SDS011;2209;48.982;8.406;2022-12-10T09:43:56;30.90;;;18.93;;
4389;SDS011;2209;48.982;8.406;2022-12-10T09:46:25;27.47;;;17.97;;
4389;SDS011;2209;48.982;8.406;2022-12-10T09:48:59;41.37;;;17.17;;
4389;SDS011;2209;48.982;8.406;2022-12-10T09:51:29;26.50;;;17.77;;
4389;SDS011;2209;48.982;8.406;2022-12-10T09:53:53;26.93;;;16.63;;
4389;SDS011;2209;48.982;8.406;2022-12-10T09:56:20;25.00;;;18.73;;
4389;SDS011;2209;48.982;8.406;2022-12-10T09:58:44;26.83;;;17.83;;
4389;SDS011;2209;48.982;8.406;2022-12-10T10:01:10;26.70;;;18.30;;
4389;SDS011;2209;48.982;8.406;2022-12-10T10:03:37;27.83;;;18.70;;
4389;SDS011;2209;48.982;8.406;2022-12-10T10:06:01;26.23;;;18.10;;
4389;SDS011;2209;48.982;8.406;2022-12-10T10:08:27;27.13;;;17.60;;
4389;SDS011;2209;48.982;8.406;2022-12-10T10:10:50;21.67;;;16.10;;
4389;SDS011;2209;48.982;8.406;2022-12-10T10:13:15;25.53;;;16.23;;
4389;SDS011;2209;48.982;8.406;2022-12-10T10:15:51;24.50;;;17.50;;
4389;SDS011;2209;48.982;8.406;2022-12-10T10:18:17;26.17;;;18.07;;
4389;SDS011;2209;48.982;8.406;2022-12-10T10:20:47;28.20;;;18.70;;
4389;SDS011;2209;48.982;8.406;2022-12-10T10:23:12;22.40;;;16.60;;
4389;SDS011;2209;48.982;8.406;2022-12-10T10:25:35;24.57;;;16.83;;
4389;SDS011;2209;48.982;8.406;2022-12-10T10:27:58;25.90;;;17.00;;
4389;SDS011;2209;48.982;8.406;2022-12-10T10:30:21;23.50;;;15.60;;
4389;SDS011;2209;48.982;8.406;2022-12-10T10:32:45;23.27;;;15.23;;
4389;SDS011;2209;48.982;8.406;2022-12-10T10:35:18;26.80;;;18.23;;
4389;SDS011;2209;48.982;8.406;2022-12-10T10:37:45;23.10;;;15.97;;
4389;SDS011;2209;48.982;8.406;2022-12-10T10:40:12;24.00;;;15.80;;
4389;SDS011;2209;48.982;8.406;2022-12-10T10:42:43;23.30;;;16.50;;
4389;SDS011;2209;48.982;8.406;2022-12-10T10:48:02;21.37;;;15.40;;
4389;SDS011;2209;48.982;8.406;2022-12-10T10:50:37;20.67;;;15.63;;
4389;SDS011;2209;48.982;8.406;2022-12-10T10:53:01;24.57;;;16.60;;
4389;SDS011;2209;48.982;8.406;2022-12-10T10:55:31;27.50;;;17.00;;
4389;SDS011;2209;48.982;8.406;2022-12-10T10:57:55;21.67;;;15.73;;
4389;SDS011;2209;48.982;8.406;2022-12-10T11:00:19;24.57;;;16.87;;
4389;SDS011;2209;48.982;8.406;2022-12-10T11:02:43;21.03;;;14.20;;
4389;SDS011;2209;48.982;8.406;2022-12-10T11:05:06;23.10;;;15.90;;
4389;SDS011;2209;48.982;8.406;2022-12-10T11:07:38;23.60;;;16.37;;
4389;SDS011;2209;48.982;8.406;2022-12-10T11:10:01;24.37;;;16.03;;
4389;SDS011;2209;48.982;8.406;2022-12-10T11:12:29;25.43;;;16.43;;
4389;SDS011;2209;48.982;8.406;2022-12-10T11:14:55;24.00;;;16.27;;
4389;SDS011;2209;48.982;8.406;2022-12-10T11:17:18;23.80;;;16.90;;
4389;SDS011;2209;48.982;8.406;2022-12-10T11:19:43;24.30;;;16.83;;
4389;SDS011;2209;48.982;8.406;2022-12-10T11:22:15;23.37;;;16.53;;
4389;SDS011;2209;48.982;8.406;2022-12-10T11:24:40;23.20;;;16.27;;
4389;SDS011;2209;48.982;8.406;2022-12-10T11:27:02;25.03;;;16.70;;
4389;SDS011;2209;48.982;8.406;2022-12-10T11:29:36;24.97;;;17.33;;
4389;SDS011;2209;48.982;8.406;2022-12-10T11:32:13;21.27;;;16.20;;
4389;SDS011;2209;48.982;8.406;2022-12-10T11:34:54;23.83;;;16.13;;
4389;SDS011;2209;48.982;8.406;2022-12-10T11:37:26;24.87;;;15.27;;
4389;SDS011;2209;48.982;8.406;2022-12-10T11:40:02;22.63;;;14.87;;
4389;SDS011;2209;48.982;8.406;2022-12-10T11:42:37;19.30;;;14.70;;
4389;SDS011;2209;48.982;8.406;2022-12-10T11:45:06;21.80;;;14.40;;
4389;SDS011;2209;48.982;8.406;2022-12-10T11:47:38;20.03;;;14.57;;
4389;SDS011;2209;48.982;8.406;2022-12-10T11:50:12;21.40;;;15.37;;
4389;SDS011;2209;48.982;8.406;2022-12-10T11:52:41;18.77;;;14.33;;
4389;SDS011;2209;48.982;8.406;2022-12-10T11:55:17;22.80;;;15.40;;
4389;SDS011;2209;48.982;8.406;2022-12-10T11:57:47;22.33;;;14.40;;
4389;SDS011;2209;48.982;8.406;2022-12-10T12:00:16;23.70;;;14.57;;
4389;SDS011;2209;48.982;8.406;2022-12-10T12:02:45;21.93;;;15.17;;
4389;SDS011;2209;48.982;8.406;2022-12-10T12:05:25;19.17;;;14.13;;
4389;SDS011;2209;48.982;8.406;2022-12-10T12:08:09;20.93;;;15.33;;
4389;SDS011;2209;48.982;8.406;2022-12-10T12:10:51;24.20;;;16.03;;
4389;SDS011;2209;48.982;8.406;2022-12-10T12:13:29;20.53;;;14.30;;
4389;SDS011;2209;48.982;8.406;2022-12-10T12:15:57;22.90;;;16.13;;
4389;SDS011;2209;48.982;8.406;2022-12-10T12:18:23;26.00;;;17.23;;
4389;SDS011;2209;48.982;8.406;2022-12-10T12:21:01;24.30;;;16.53;;
4389;SDS011;2209;48.982;8.406;2022-12-10T12:23:28;28.07;;;18.27;;
4389;SDS011;2209;48.982;8.406;2022-12-10T12:25:57;24.57;;;17.63;;
4389;SDS011;2209;48.982;8.406;2022-12-10T12:28:25;23.70;;;16.40;;
4389;SDS011;2209;48.982;8.406;2022-12-10T12:30:53;24.03;;;16.73;;
4389;SDS011;2209;48.982;8.406;2022-12-10T12:33:23;25.60;;;16.70;;
4389;SDS011;2209;48.982;8.406;2022-12-10T12:35:51;23.67;;;16.50;;
4389;SDS011;2209;48.982;8.406;2022-12-10T12:38:21;24.20;;;16.90;;
4389;SDS011;2209;48.982;8.406;2022-12-10T12:40:48;27.27;;;17.80;;
4389;SDS011;2209;48.982;8.406;2022-12-10T12:43:16;23.40;;;16.40;;
4389;SDS011;2209;48.982;8.406;2022-12-10T12:45:42;21.67;;;16.70;;
4389;SDS011;2209;48.982;8.406;2022-12-10T12:48:11;21.20;;;15.50;;
4389;SDS011;2209;48.982;8.406;2022-12-10T12:50:43;19.07;;;14.07;;
4389;SDS011;2209;48.982;8.406;2022-12-10T12:53:08;18.87;;;15.30;;
4389;SDS011;2209;48.982;8.406;2022-12-10T12:55:35;23.67;;;14.50;;
4389;SDS011;2209;48.982;8.406;2022-12-10T12:58:10;16.30;;;13.27;;
4389;SDS011;2209;48.982;8.406;2022-12-10T13:00:38;21.50;;;14.43;;
4389;SDS011;2209;48.982;8.406;2022-12-10T13:03:06;17.07;;;11.83;;
4389;SDS011;2209;48.982;8.406;2022-12-10T13:05:38;18.10;;;12.83;;
4389;SDS011;2209;48.982;8.406;2022-12-10T13:08:15;19.33;;;13.83;;
4389;SDS011;2209;48.982;8.406;2022-12-10T13:10:50;15.43;;;12.00;;
4389;SDS011;2209;48.982;8.406;2022-12-10T13:13:22;17.63;;;12.77;;
4389;SDS011;2209;48.982;8.406;2022-12-10T13:15:47;16.53;;;13.23;;
4389;SDS011;2209;48.982;8.406;2022-12-10T13:18:21;22.00;;;14.50;;
4389;SDS011;2209;48.982;8.406;2022-12-10T13:21:16;20.07;;;14.03;;
4389;SDS011;2209;48.982;8.406;2022-12-10T13:23:50;21.33;;;15.40;;
4389;SDS011;2209;48.982;8.406;2022-12-10T13:26:22;18.90;;;14.50;;
4389;SDS011;2209;48.982;8.406;2022-12-10T13:28:48;24.97;;;16.50;;
4389;SDS011;2209;48.982;8.406;2022-12-10T13:31:21;18.37;;;13.87;;
4389;SDS011;2209;48.982;8.406;2022-12-10T13:34:04;20.23;;;15.97;;
4389;SDS011;2209;48.982;8.406;2022-12-10T13:39:35;19.20;;;13.87;;
4389;SDS011;2209;48.982;8.406;2022-12-10T13:42:26;20.37;;;14.77;;
4389;SDS011;2209;48.982;8.406;2022-12-10T13:45:22;19.67;;;13.67;;
4389;SDS011;2209;48.982;8.406;2022-12-10T13:47:52;16.03;;;12.63;;
4389;SDS011;2209;48.982;8.406;2022-12-10T13:50:16;16.30;;;12.80;;
4389;SDS011;2209;48.982;8.406;2022-12-10T13:52:42;19.27;;;13.03;;
4389;SDS011;2209;48.982;8.406;2022-12-10T13:55:20;15.17;;;12.23;;
4389;SDS011;2209;48.982;8.406;2022-12-10T13:58:05;16.40;;;11.47;;
4389;SDS011;2209;48.982;8.406;2022-12-10T14:00:37;16.50;;;12.70;;
4389;SDS011;2209;48.982;8.406;2022-12-10T14:06:14;19.90;;;12.80;;
4389;SDS011;2209;48.982;8.406;2022-12-10T14:08:38;18.90;;;13.20;;
4389;SDS011;2209;48.982;8.406;2022-12-10T14:11:04;15.37;;;11.67;;
4389;SDS011;2209;48.982;8.406;2022-12-10T14:13:31;18.40;;;12.90;;
4389;SDS011;2209;48.982;8.406;2022-12-10T14:15:58;15.87;;;12.53;;
4389;SDS011;2209;48.982;8.406;2022-12-10T14:18:23;17.07;;;13.40;;
4389;SDS011;2209;48.982;8.406;2022-12-10T14:20:46;16.13;;;12.20;;
4389;SDS011;2209;48.982;8.406;2022-12-10T14:23:22;16.87;;;11.93;;
4389;SDS011;2209;48.982;8.406;2022-12-10T14:25:56;15.60;;;12.93;;
4389;SDS011;2209;48.982;8.406;2022-12-10T14:28:18;13.97;;;10.67;;
4389;SDS011;2209;48.982;8.406;2022-12-10T14:30:42;20.10;;;11.30;;
4389;SDS011;2209;48.982;8.406;2022-12-10T14:33:07;14.40;;;10.53;;
4389;SDS011;2209;48.982;8.406;2022-12-10T14:35:34;15.07;;;11.80;;
4389;SDS011;2209;48.982;8.406;2022-12-10T14:37:56;14.87;;;11.77;;
4389;SDS011;2209;48.982;8.406;2022-12-10T14:40:22;17.40;;;12.50;;
4389;SDS011;2209;48.982;8.406;2022-12-10T14:42:45;13.50;;;11.40;;
4389;SDS011;2209;48.982;8.406;2022-12-10T14:45:11;15.73;;;12.30;;
4389;SDS011;2209;48.982;8.406;2022-12-10T14:47:36;17.07;;;12.30;;
4389;SDS011;2209;48.982;8.406;2022-12-10T14:50:00;16.43;;;11.67;;
4389;SDS011;2209;48.982;8.406;2022-12-10T14:52:23;14.23;;;11.97;;